sensor_id;sensor_type;location;lat;lon;timestamp;P1;durP1;ratioP1;P2;durP2;ratioP2
3433;SDS011;1730;41.932;25.548;2023-07-09T00:01:20;11.17;;;10.27;;
3433;SDS011;1730;41.932;25.548;2023-07-09T00:03:46;10.30;;;9.30;;
3433;SDS011;1730;41.932;25.548;2023-07-09T00:06:17;8.63;;;8.03;;
3433;SDS011;1730;41.932;25.548;2023-07-09T00:08:44;8.17;;;7.57;;
3433;SDS011;1730;41.932;25.548;2023-07-09T00:11:13;9.33;;;7.10;;
3433;SDS011;1730;41.932;25.548;2023-07-09T00:13:39;9.70;;;8.47;;
3433;SDS011;1730;41.932;25.548;2023-07-09T00:16:10;10.30;;;8.23;;
3433;SDS011;1730;41.932;25.548;2023-07-09T00:18:38;8.47;;;7.77;;
3433;SDS011;1730;41.932;25.548;2023-07-09T00:21:03;7.70;;;7.00;;
3433;SDS011;1730;41.932;25.548;2023-07-09T00:23:29;7.33;;;6.50;;
3433;SDS011;1730;41.932;25.548;2023-07-09T00:25:55;7.00;;;6.37;;
3433;SDS011;1730;41.932;25.548;2023-07-09T00:28:20;6.50;;;6.07;;
3433;SDS011;1730;41.932;25.548;2023-07-09T00:30:46;12.80;;;6.27;;
3433;SDS011;1730;41.932;25.548;2023-07-09T00:33:13;12.43;;;6.37;;
3433;SDS011;1730;41.932;25.548;2023-07-09T00:35:41;6.30;;;5.90;;
3433;SDS011;1730;41.932;25.548;2023-07-09T00:38:21;7.23;;;5.73;;
3433;SDS011;1730;41.932;25.548;2023-07-09T00:43:47;8.33;;;6.60;;
3433;SDS011;1730;41.932;25.548;2023-07-09T00:48:45;6.83;;;6.10;;
3433;SDS011;1730;41.932;25.548;2023-07-09T00:51:16;8.80;;;6.53;;
3433;SDS011;1730;41.932;25.548;2023-07-09T00:53:45;7.87;;;6.53;;
3433;SDS011;1730;41.932;25.548;2023-07-09T00:56:25;13.67;;;7.00;;
3433;SDS011;1730;41.932;25.548;2023-07-09T00:58:58;7.67;;;6.57;;
3433;SDS011;1730;41.932;25.548;2023-07-09T01:01:29;6.80;;;6.40;;
3433;SDS011;1730;41.932;25.548;2023-07-09T01:03:56;7.73;;;6.60;;
3433;SDS011;1730;41.932;25.548;2023-07-09T01:06:28;6.90;;;6.53;;
3433;SDS011;1730;41.932;25.548;2023-07-09T01:08:57;6.53;;;6.00;;
3433;SDS011;1730;41.932;25.548;2023-07-09T01:11:26;7.20;;;6.50;;
3433;SDS011;1730;41.932;25.548;2023-07-09T01:13:52;5.90;;;5.60;;
3433;SDS011;1730;41.932;25.548;2023-07-09T01:16:21;7.17;;;6.30;;
3433;SDS011;1730;41.932;25.548;2023-07-09T01:18:49;10.83;;;6.37;;
3433;SDS011;1730;41.932;25.548;2023-07-09T01:21:16;6.40;;;5.80;;
3433;SDS011;1730;41.932;25.548;2023-07-09T01:23:42;6.50;;;6.00;;
3433;SDS011;1730;41.932;25.548;2023-07-09T01:26:13;4.97;;;4.60;;
3433;SDS011;1730;41.932;25.548;2023-07-09T01:28:41;6.73;;;6.03;;
3433;SDS011;1730;41.932;25.548;2023-07-09T01:31:09;8.83;;;5.90;;
3433;SDS011;1730;41.932;25.548;2023-07-09T01:33:37;5.70;;;5.30;;
3433;SDS011;1730;41.932;25.548;2023-07-09T01:36:08;11.17;;;5.87;;
3433;SDS011;1730;41.932;25.548;2023-07-09T01:38:34;8.90;;;6.27;;
3433;SDS011;1730;41.932;25.548;2023-07-09T01:41:00;6.20;;;5.70;;
3433;SDS011;1730;41.932;25.548;2023-07-09T01:43:27;14.80;;;6.73;;
3433;SDS011;1730;41.932;25.548;2023-07-09T01:45:53;9.50;;;6.80;;
3433;SDS011;1730;41.932;25.548;2023-07-09T01:48:23;11.27;;;6.40;;
3433;SDS011;1730;41.932;25.548;2023-07-09T01:50:49;6.50;;;6.20;;
3433;SDS011;1730;41.932;25.548;2023-07-09T01:53:16;7.03;;;6.53;;
3433;SDS011;1730;41.932;25.548;2023-07-09T01:55:44;10.17;;;6.57;;
3433;SDS011;1730;41.932;25.548;2023-07-09T01:58:10;7.50;;;6.90;;
3433;SDS011;1730;41.932;25.548;2023-07-09T02:00:36;8.37;;;7.07;;
3433;SDS011;1730;41.932;25.548;2023-07-09T02:03:03;7.13;;;6.53;;
3433;SDS011;1730;41.932;25.548;2023-07-09T02:05:32;7.33;;;6.73;;
3433;SDS011;1730;41.932;25.548;2023-07-09T02:07:58;6.70;;;6.30;;
3433;SDS011;1730;41.932;25.548;2023-07-09T02:10:24;6.83;;;6.40;;
3433;SDS011;1730;41.932;25.548;2023-07-09T02:12:50;9.53;;;6.87;;
3433;SDS011;1730;41.932;25.548;2023-07-09T02:15:16;7.27;;;6.60;;
3433;SDS011;1730;41.932;25.548;2023-07-09T02:17:42;7.50;;;6.70;;
3433;SDS011;1730;41.932;25.548;2023-07-09T02:20:08;9.90;;;7.73;;
3433;SDS011;1730;41.932;25.548;2023-07-09T02:22:35;6.87;;;6.40;;
3433;SDS011;1730;41.932;25.548;2023-07-09T02:25:02;7.47;;;6.80;;
3433;SDS011;1730;41.932;25.548;2023-07-09T02:27:28;6.83;;;6.43;;
3433;SDS011;1730;41.932;25.548;2023-07-09T02:29:53;7.43;;;6.73;;
3433;SDS011;1730;41.932;25.548;2023-07-09T02:32:20;10.03;;;8.30;;
3433;SDS011;1730;41.932;25.548;2023-07-09T02:34:48;7.10;;;6.70;;
3433;SDS011;1730;41.932;25.548;2023-07-09T02:37:17;7.57;;;6.87;;
3433;SDS011;1730;41.932;25.548;2023-07-09T02:39:43;7.47;;;6.73;;
3433;SDS011;1730;41.932;25.548;2023-07-09T02:42:11;8.53;;;7.83;;
3433;SDS011;1730;41.932;25.548;2023-07-09T02:44:38;8.00;;;7.40;;
3433;SDS011;1730;41.932;25.548;2023-07-09T02:47:04;8.83;;;7.20;;
3433;SDS011;1730;41.932;25.548;2023-07-09T02:49:30;9.30;;;7.50;;
3433;SDS011;1730;41.932;25.548;2023-07-09T02:51:55;10.70;;;6.50;;
3433;SDS011;1730;41.932;25.548;2023-07-09T02:54:21;7.20;;;6.50;;
3433;SDS011;1730;41.932;25.548;2023-07-09T02:56:46;9.63;;;7.40;;
3433;SDS011;1730;41.932;25.548;2023-07-09T02:59:12;8.83;;;7.00;;
3433;SDS011;1730;41.932;25.548;2023-07-09T03:01:38;6.97;;;6.57;;
3433;SDS011;1730;41.932;25.548;2023-07-09T03:04:04;8.13;;;7.00;;
3433;SDS011;1730;41.932;25.548;2023-07-09T03:06:30;7.70;;;7.00;;
3433;SDS011;1730;41.932;25.548;2023-07-09T03:09:00;7.30;;;6.90;;
3433;SDS011;1730;41.932;25.548;2023-07-09T03:11:30;7.20;;;6.70;;
3433;SDS011;1730;41.932;25.548;2023-07-09T03:13:57;8.00;;;7.30;;
3433;SDS011;1730;41.932;25.548;2023-07-09T03:16:26;9.10;;;7.40;;
3433;SDS011;1730;41.932;25.548;2023-07-09T03:18:53;7.13;;;6.50;;
3433;SDS011;1730;41.932;25.548;2023-07-09T03:21:19;7.97;;;7.17;;
3433;SDS011;1730;41.932;25.548;2023-07-09T03:23:45;7.77;;;7.07;;
3433;SDS011;1730;41.932;25.548;2023-07-09T03:26:11;7.57;;;6.87;;
3433;SDS011;1730;41.932;25.548;2023-07-09T03:28:37;7.90;;;7.40;;
3433;SDS011;1730;41.932;25.548;2023-07-09T03:31:02;7.33;;;6.63;;
3433;SDS011;1730;41.932;25.548;2023-07-09T03:33:28;6.87;;;6.00;;
3433;SDS011;1730;41.932;25.548;2023-07-09T03:35:55;7.67;;;7.07;;
3433;SDS011;1730;41.932;25.548;2023-07-09T03:38:21;6.50;;;6.10;;
3433;SDS011;1730;41.932;25.548;2023-07-09T03:40:51;6.17;;;5.73;;
3433;SDS011;1730;41.932;25.548;2023-07-09T03:43:17;6.37;;;5.87;;
3433;SDS011;1730;41.932;25.548;2023-07-09T03:45:43;6.40;;;5.90;;
3433;SDS011;1730;41.932;25.548;2023-07-09T03:48:09;6.13;;;5.53;;
3433;SDS011;1730;41.932;25.548;2023-07-09T03:50:34;8.23;;;5.70;;
3433;SDS011;1730;41.932;25.548;2023-07-09T03:53:00;5.70;;;5.30;;
3433;SDS011;1730;41.932;25.548;2023-07-09T03:55:25;12.53;;;5.53;;
3433;SDS011;1730;41.932;25.548;2023-07-09T03:57:53;5.80;;;5.17;;
3433;SDS011;1730;41.932;25.548;2023-07-09T04:00:19;4.43;;;4.23;;
3433;SDS011;1730;41.932;25.548;2023-07-09T04:02:44;5.63;;;4.33;;
3433;SDS011;1730;41.932;25.548;2023-07-09T04:05:10;4.50;;;4.10;;
3433;SDS011;1730;41.932;25.548;2023-07-09T04:07:36;5.03;;;4.57;;
3433;SDS011;1730;41.932;25.548;2023-07-09T04:10:02;5.00;;;4.50;;
3433;SDS011;1730;41.932;25.548;2023-07-09T04:12:29;5.00;;;4.70;;
3433;SDS011;1730;41.932;25.548;2023-07-09T04:14:54;7.60;;;4.83;;
3433;SDS011;1730;41.932;25.548;2023-07-09T04:17:20;4.27;;;4.07;;
3433;SDS011;1730;41.932;25.548;2023-07-09T04:19:47;5.40;;;4.90;;
3433;SDS011;1730;41.932;25.548;2023-07-09T04:22:12;8.77;;;5.27;;
3433;SDS011;1730;41.932;25.548;2023-07-09T04:24:38;5.10;;;4.67;;
3433;SDS011;1730;41.932;25.548;2023-07-09T04:27:03;8.47;;;4.87;;
3433;SDS011;1730;41.932;25.548;2023-07-09T04:29:30;4.97;;;4.53;;
3433;SDS011;1730;41.932;25.548;2023-07-09T04:31:55;5.10;;;4.60;;
3433;SDS011;1730;41.932;25.548;2023-07-09T04:34:21;6.63;;;5.13;;
3433;SDS011;1730;41.932;25.548;2023-07-09T04:36:47;5.20;;;4.80;;
3433;SDS011;1730;41.932;25.548;2023-07-09T04:39:12;5.40;;;5.07;;
3433;SDS011;1730;41.932;25.548;2023-07-09T04:41:38;6.00;;;5.60;;
3433;SDS011;1730;41.932;25.548;2023-07-09T04:44:03;6.30;;;5.80;;
3433;SDS011;1730;41.932;25.548;2023-07-09T04:46:29;6.07;;;5.57;;
3433;SDS011;1730;41.932;25.548;2023-07-09T04:48:54;5.40;;;5.00;;
3433;SDS011;1730;41.932;25.548;2023-07-09T04:51:20;12.40;;;5.47;;
3433;SDS011;1730;41.932;25.548;2023-07-09T04:53:46;5.80;;;5.30;;
3433;SDS011;1730;41.932;25.548;2023-07-09T04:56:12;7.27;;;5.37;;
3433;SDS011;1730;41.932;25.548;2023-07-09T04:58:37;5.40;;;4.90;;
3433;SDS011;1730;41.932;25.548;2023-07-09T05:01:03;5.63;;;5.13;;
3433;SDS011;1730;41.932;25.548;2023-07-09T05:03:29;5.53;;;5.10;;
3433;SDS011;1730;41.932;25.548;2023-07-09T05:05:54;5.47;;;5.17;;
3433;SDS011;1730;41.932;25.548;2023-07-09T05:08:20;6.00;;;5.50;;
3433;SDS011;1730;41.932;25.548;2023-07-09T05:10:49;5.20;;;4.60;;
3433;SDS011;1730;41.932;25.548;2023-07-09T05:13:16;6.57;;;4.60;;
3433;SDS011;1730;41.932;25.548;2023-07-09T05:15:43;7.50;;;5.57;;
3433;SDS011;1730;41.932;25.548;2023-07-09T05:18:10;4.90;;;4.40;;
3433;SDS011;1730;41.932;25.548;2023-07-09T05:20:39;4.83;;;4.43;;
3433;SDS011;1730;41.932;25.548;2023-07-09T05:23:06;4.63;;;4.23;;
3433;SDS011;1730;41.932;25.548;2023-07-09T05:25:31;6.83;;;4.63;;
3433;SDS011;1730;41.932;25.548;2023-07-09T05:27:57;5.47;;;4.97;;
3433;SDS011;1730;41.932;25.548;2023-07-09T05:30:22;5.10;;;4.80;;
3433;SDS011;1730;41.932;25.548;2023-07-09T05:32:48;6.00;;;4.77;;
3433;SDS011;1730;41.932;25.548;2023-07-09T05:35:14;5.73;;;4.77;;
3433;SDS011;1730;41.932;25.548;2023-07-09T05:37:39;5.87;;;5.40;;
3433;SDS011;1730;41.932;25.548;2023-07-09T05:40:05;6.73;;;4.40;;
3433;SDS011;1730;41.932;25.548;2023-07-09T05:42:32;4.40;;;4.10;;
3433;SDS011;1730;41.932;25.548;2023-07-09T05:44:58;7.70;;;4.43;;
3433;SDS011;1730;41.932;25.548;2023-07-09T05:47:24;5.00;;;4.50;;
3433;SDS011;1730;41.932;25.548;2023-07-09T05:49:50;4.53;;;4.13;;
3433;SDS011;1730;41.932;25.548;2023-07-09T05:52:16;5.60;;;4.23;;
3433;SDS011;1730;41.932;25.548;2023-07-09T05:54:43;5.07;;;4.50;;
3433;SDS011;1730;41.932;25.548;2023-07-09T05:57:08;4.40;;;4.00;;
3433;SDS011;1730;41.932;25.548;2023-07-09T05:59:34;4.53;;;4.10;;
3433;SDS011;1730;41.932;25.548;2023-07-09T06:02:01;6.77;;;4.63;;
3433;SDS011;1730;41.932;25.548;2023-07-09T06:04:28;5.50;;;4.03;;
3433;SDS011;1730;41.932;25.548;2023-07-09T06:06:53;4.40;;;4.00;;
3433;SDS011;1730;41.932;25.548;2023-07-09T06:09:19;5.00;;;4.50;;
3433;SDS011;1730;41.932;25.548;2023-07-09T06:11:44;5.10;;;4.17;;
3433;SDS011;1730;41.932;25.548;2023-07-09T06:14:10;4.30;;;3.90;;
3433;SDS011;1730;41.932;25.548;2023-07-09T06:16:35;8.33;;;3.90;;
3433;SDS011;1730;41.932;25.548;2023-07-09T06:19:02;6.37;;;4.17;;
3433;SDS011;1730;41.932;25.548;2023-07-09T06:21:28;4.03;;;3.67;;
3433;SDS011;1730;41.932;25.548;2023-07-09T06:23:54;4.43;;;4.07;;
3433;SDS011;1730;41.932;25.548;2023-07-09T06:26:20;4.53;;;4.23;;
3433;SDS011;1730;41.932;25.548;2023-07-09T06:28:46;6.13;;;3.90;;
3433;SDS011;1730;41.932;25.548;2023-07-09T06:31:11;4.20;;;3.90;;
3433;SDS011;1730;41.932;25.548;2023-07-09T06:33:37;5.63;;;4.23;;
3433;SDS011;1730;41.932;25.548;2023-07-09T06:36:03;4.40;;;3.80;;
3433;SDS011;1730;41.932;25.548;2023-07-09T06:38:29;7.37;;;4.07;;
3433;SDS011;1730;41.932;25.548;2023-07-09T06:40:56;4.27;;;3.20;;
3433;SDS011;1730;41.932;25.548;2023-07-09T06:43:22;3.77;;;3.47;;
3433;SDS011;1730;41.932;25.548;2023-07-09T06:45:48;3.80;;;3.50;;
3433;SDS011;1730;41.932;25.548;2023-07-09T06:48:19;4.40;;;4.10;;
3433;SDS011;1730;41.932;25.548;2023-07-09T06:50:45;4.70;;;4.40;;
3433;SDS011;1730;41.932;25.548;2023-07-09T06:53:12;4.60;;;4.30;;
3433;SDS011;1730;41.932;25.548;2023-07-09T06:55:37;4.00;;;3.80;;
3433;SDS011;1730;41.932;25.548;2023-07-09T06:58:03;6.20;;;3.90;;
3433;SDS011;1730;41.932;25.548;2023-07-09T07:00:29;4.77;;;3.90;;
3433;SDS011;1730;41.932;25.548;2023-07-09T07:02:54;4.00;;;3.60;;
3433;SDS011;1730;41.932;25.548;2023-07-09T07:05:20;5.57;;;3.70;;
3433;SDS011;1730;41.932;25.548;2023-07-09T07:07:46;3.60;;;3.30;;
3433;SDS011;1730;41.932;25.548;2023-07-09T07:10:12;3.57;;;3.30;;
3433;SDS011;1730;41.932;25.548;2023-07-09T07:12:44;3.50;;;3.10;;
3433;SDS011;1730;41.932;25.548;2023-07-09T07:15:13;6.17;;;3.23;;
3433;SDS011;1730;41.932;25.548;2023-07-09T07:17:40;3.37;;;3.00;;
3433;SDS011;1730;41.932;25.548;2023-07-09T07:20:08;3.90;;;3.50;;
3433;SDS011;1730;41.932;25.548;2023-07-09T07:22:35;4.53;;;3.50;;
3433;SDS011;1730;41.932;25.548;2023-07-09T07:25:03;3.47;;;3.17;;
3433;SDS011;1730;41.932;25.548;2023-07-09T07:27:29;4.60;;;2.97;;
3433;SDS011;1730;41.932;25.548;2023-07-09T07:29:55;4.23;;;3.00;;
3433;SDS011;1730;41.932;25.548;2023-07-09T07:32:21;3.40;;;3.20;;
3433;SDS011;1730;41.932;25.548;2023-07-09T07:34:47;3.37;;;3.17;;
3433;SDS011;1730;41.932;25.548;2023-07-09T07:37:15;6.37;;;3.00;;
3433;SDS011;1730;41.932;25.548;2023-07-09T07:39:44;3.40;;;3.07;;
3433;SDS011;1730;41.932;25.548;2023-07-09T07:42:10;3.97;;;3.67;;
3433;SDS011;1730;41.932;25.548;2023-07-09T07:44:35;3.20;;;2.97;;
3433;SDS011;1730;41.932;25.548;2023-07-09T07:47:01;2.87;;;2.67;;
3433;SDS011;1730;41.932;25.548;2023-07-09T07:49:26;3.70;;;3.30;;
3433;SDS011;1730;41.932;25.548;2023-07-09T07:51:52;6.50;;;3.47;;
3433;SDS011;1730;41.932;25.548;2023-07-09T07:54:18;3.80;;;3.53;;
3433;SDS011;1730;41.932;25.548;2023-07-09T07:56:43;3.10;;;2.90;;
3433;SDS011;1730;41.932;25.548;2023-07-09T07:59:09;4.67;;;4.13;;
3433;SDS011;1730;41.932;25.548;2023-07-09T08:01:34;3.30;;;3.10;;
3433;SDS011;1730;41.932;25.548;2023-07-09T08:04:01;3.27;;;3.07;;
3433;SDS011;1730;41.932;25.548;2023-07-09T08:06:27;3.80;;;3.40;;
3433;SDS011;1730;41.932;25.548;2023-07-09T08:08:54;5.13;;;3.30;;
3433;SDS011;1730;41.932;25.548;2023-07-09T08:11:19;3.60;;;3.13;;
3433;SDS011;1730;41.932;25.548;2023-07-09T08:13:45;6.87;;;3.87;;
3433;SDS011;1730;41.932;25.548;2023-07-09T08:16:10;3.00;;;2.90;;
3433;SDS011;1730;41.932;25.548;2023-07-09T08:18:37;4.13;;;3.27;;
3433;SDS011;1730;41.932;25.548;2023-07-09T08:21:03;3.53;;;3.33;;
3433;SDS011;1730;41.932;25.548;2023-07-09T08:23:29;3.73;;;3.53;;
3433;SDS011;1730;41.932;25.548;2023-07-09T08:25:55;3.80;;;2.90;;
3433;SDS011;1730;41.932;25.548;2023-07-09T08:28:23;3.50;;;3.30;;
3433;SDS011;1730;41.932;25.548;2023-07-09T08:30:51;3.80;;;3.47;;
3433;SDS011;1730;41.932;25.548;2023-07-09T08:33:18;4.33;;;3.03;;
3433;SDS011;1730;41.932;25.548;2023-07-09T08:35:43;4.00;;;3.60;;
3433;SDS011;1730;41.932;25.548;2023-07-09T08:38:09;3.13;;;2.83;;
3433;SDS011;1730;41.932;25.548;2023-07-09T08:40:38;4.00;;;3.37;;
3433;SDS011;1730;41.932;25.548;2023-07-09T08:43:29;3.67;;;3.47;;
3433;SDS011;1730;41.932;25.548;2023-07-09T08:48:52;3.27;;;3.07;;
3433;SDS011;1730;41.932;25.548;2023-07-09T08:53:59;4.07;;;3.60;;
3433;SDS011;1730;41.932;25.548;2023-07-09T08:56:26;3.10;;;2.90;;
3433;SDS011;1730;41.932;25.548;2023-07-09T08:58:58;4.97;;;3.47;;
3433;SDS011;1730;41.932;25.548;2023-07-09T09:01:29;5.20;;;3.63;;
3433;SDS011;1730;41.932;25.548;2023-07-09T09:10:03;3.40;;;3.10;;
3433;SDS011;1730;41.932;25.548;2023-07-09T09:12:33;3.07;;;2.87;;
3433;SDS011;1730;41.932;25.548;2023-07-09T09:15:13;4.10;;;3.17;;
3433;SDS011;1730;41.932;25.548;2023-07-09T09:17:41;4.93;;;3.63;;
3433;SDS011;1730;41.932;25.548;2023-07-09T09:20:11;3.50;;;3.30;;
3433;SDS011;1730;41.932;25.548;2023-07-09T09:22:46;3.23;;;3.03;;
3433;SDS011;1730;41.932;25.548;2023-07-09T09:27:41;3.93;;;3.57;;
3433;SDS011;1730;41.932;25.548;2023-07-09T09:30:10;4.63;;;2.97;;
3433;SDS011;1730;41.932;25.548;2023-07-09T09:32:55;4.50;;;3.47;;
3433;SDS011;1730;41.932;25.548;2023-07-09T09:35:39;3.10;;;2.90;;
3433;SDS011;1730;41.932;25.548;2023-07-09T09:38:12;3.20;;;3.00;;
3433;SDS011;1730;41.932;25.548;2023-07-09T09:40:42;3.67;;;3.37;;
3433;SDS011;1730;41.932;25.548;2023-07-09T09:43:11;3.20;;;3.00;;
3433;SDS011;1730;41.932;25.548;2023-07-09T09:45:39;3.60;;;2.93;;
3433;SDS011;1730;41.932;25.548;2023-07-09T09:48:50;3.63;;;3.43;;
3433;SDS011;1730;41.932;25.548;2023-07-09T09:50:57;3.73;;;3.43;;
3433;SDS011;1730;41.932;25.548;2023-07-09T09:53:26;3.93;;;3.53;;
3433;SDS011;1730;41.932;25.548;2023-07-09T09:55:55;3.40;;;2.90;;
3433;SDS011;1730;41.932;25.548;2023-07-09T09:58:28;3.47;;;3.13;;
3433;SDS011;1730;41.932;25.548;2023-07-09T10:00:55;3.93;;;3.17;;
3433;SDS011;1730;41.932;25.548;2023-07-09T10:03:32;3.57;;;3.20;;
3433;SDS011;1730;41.932;25.548;2023-07-09T10:05:59;3.00;;;2.80;;
3433;SDS011;1730;41.932;25.548;2023-07-09T10:11:12;4.93;;;3.10;;
3433;SDS011;1730;41.932;25.548;2023-07-09T10:13:43;3.53;;;3.13;;
3433;SDS011;1730;41.932;25.548;2023-07-09T10:16:14;3.20;;;2.90;;
3433;SDS011;1730;41.932;25.548;2023-07-09T10:19:02;5.63;;;3.00;;
3433;SDS011;1730;41.932;25.548;2023-07-09T10:21:58;3.00;;;2.80;;
3433;SDS011;1730;41.932;25.548;2023-07-09T10:24:45;3.23;;;2.90;;
3433;SDS011;1730;41.932;25.548;2023-07-09T10:30:34;4.13;;;3.83;;
3433;SDS011;1730;41.932;25.548;2023-07-09T10:33:08;3.40;;;3.20;;
3433;SDS011;1730;41.932;25.548;2023-07-09T10:40:59;3.30;;;3.00;;
3433;SDS011;1730;41.932;25.548;2023-07-09T10:43:33;3.37;;;3.07;;
3433;SDS011;1730;41.932;25.548;2023-07-09T10:46:06;3.70;;;3.40;;
3433;SDS011;1730;41.932;25.548;2023-07-09T10:48:43;6.27;;;3.47;;
3433;SDS011;1730;41.932;25.548;2023-07-09T10:56:56;3.53;;;3.10;;
3433;SDS011;1730;41.932;25.548;2023-07-09T10:59:30;3.30;;;3.10;;
3433;SDS011;1730;41.932;25.548;2023-07-09T11:02:21;3.10;;;2.90;;
3433;SDS011;1730;41.932;25.548;2023-07-09T11:04:47;4.53;;;2.77;;
3433;SDS011;1730;41.932;25.548;2023-07-09T11:07:18;3.50;;;2.90;;
3433;SDS011;1730;41.932;25.548;2023-07-09T11:09:51;3.60;;;3.30;;
3433;SDS011;1730;41.932;25.548;2023-07-09T11:12:27;7.23;;;4.50;;
3433;SDS011;1730;41.932;25.548;2023-07-09T11:15:00;4.40;;;3.70;;
3433;SDS011;1730;41.932;25.548;2023-07-09T11:17:29;5.00;;;3.80;;
3433;SDS011;1730;41.932;25.548;2023-07-09T11:19:56;3.37;;;3.07;;
3433;SDS011;1730;41.932;25.548;2023-07-09T11:22:38;3.90;;;3.47;;
3433;SDS011;1730;41.932;25.548;2023-07-09T11:25:09;3.87;;;3.03;;
3433;SDS011;1730;41.932;25.548;2023-07-09T11:27:49;3.70;;;3.40;;
3433;SDS011;1730;41.932;25.548;2023-07-09T11:32:56;4.30;;;3.23;;
3433;SDS011;1730;41.932;25.548;2023-07-09T11:35:43;5.77;;;2.93;;
3433;SDS011;1730;41.932;25.548;2023-07-09T11:38:19;2.87;;;2.67;;
3433;SDS011;1730;41.932;25.548;2023-07-09T11:40:50;3.50;;;2.90;;
3433;SDS011;1730;41.932;25.548;2023-07-09T11:46:14;2.97;;;2.50;;
3433;SDS011;1730;41.932;25.548;2023-07-09T11:48:43;2.97;;;2.77;;
3433;SDS011;1730;41.932;25.548;2023-07-09T11:51:16;3.37;;;2.93;;
3433;SDS011;1730;41.932;25.548;2023-07-09T11:53:47;3.77;;;2.60;;
3433;SDS011;1730;41.932;25.548;2023-07-09T11:56:18;3.53;;;3.03;;
3433;SDS011;1730;41.932;25.548;2023-07-09T11:58:57;2.90;;;2.70;;
3433;SDS011;1730;41.932;25.548;2023-07-09T12:01:34;4.90;;;3.50;;
3433;SDS011;1730;41.932;25.548;2023-07-09T12:04:07;3.07;;;2.87;;
3433;SDS011;1730;41.932;25.548;2023-07-09T12:06:38;2.77;;;2.57;;
3433;SDS011;1730;41.932;25.548;2023-07-09T12:09:05;4.03;;;2.80;;
3433;SDS011;1730;41.932;25.548;2023-07-09T12:11:32;3.73;;;2.70;;
3433;SDS011;1730;41.932;25.548;2023-07-09T12:14:01;2.90;;;2.70;;
3433;SDS011;1730;41.932;25.548;2023-07-09T12:16:35;3.20;;;2.80;;
3433;SDS011;1730;41.932;25.548;2023-07-09T12:19:04;3.50;;;2.70;;
3433;SDS011;1730;41.932;25.548;2023-07-09T12:21:30;2.77;;;2.67;;
3433;SDS011;1730;41.932;25.548;2023-07-09T12:23:57;3.27;;;2.97;;
3433;SDS011;1730;41.932;25.548;2023-07-09T12:26:23;2.67;;;2.47;;
3433;SDS011;1730;41.932;25.548;2023-07-09T12:28:52;5.40;;;2.73;;
3433;SDS011;1730;41.932;25.548;2023-07-09T12:31:30;4.23;;;2.93;;
3433;SDS011;1730;41.932;25.548;2023-07-09T12:33:56;2.70;;;2.60;;
3433;SDS011;1730;41.932;25.548;2023-07-09T12:36:23;4.53;;;2.43;;
3433;SDS011;1730;41.932;25.548;2023-07-09T12:38:52;2.50;;;2.40;;
3433;SDS011;1730;41.932;25.548;2023-07-09T12:44:04;2.70;;;2.50;;
3433;SDS011;1730;41.932;25.548;2023-07-09T12:46:30;2.70;;;2.50;;
3433;SDS011;1730;41.932;25.548;2023-07-09T12:48:56;3.03;;;2.83;;
3433;SDS011;1730;41.932;25.548;2023-07-09T12:51:23;2.30;;;2.20;;
3433;SDS011;1730;41.932;25.548;2023-07-09T12:54:00;2.40;;;2.20;;
3433;SDS011;1730;41.932;25.548;2023-07-09T12:56:52;5.40;;;2.37;;
3433;SDS011;1730;41.932;25.548;2023-07-09T12:59:25;2.90;;;2.70;;
3433;SDS011;1730;41.932;25.548;2023-07-09T13:01:59;2.53;;;2.33;;
3433;SDS011;1730;41.932;25.548;2023-07-09T13:04:28;3.00;;;2.70;;
3433;SDS011;1730;41.932;25.548;2023-07-09T13:06:56;2.30;;;2.13;;
3433;SDS011;1730;41.932;25.548;2023-07-09T13:09:25;2.70;;;2.50;;
3433;SDS011;1730;41.932;25.548;2023-07-09T13:11:51;2.67;;;2.50;;
3433;SDS011;1730;41.932;25.548;2023-07-09T13:14:18;3.77;;;3.53;;
3433;SDS011;1730;41.932;25.548;2023-07-09T13:16:50;3.10;;;2.20;;
3433;SDS011;1730;41.932;25.548;2023-07-09T13:19:16;3.17;;;2.97;;
3433;SDS011;1730;41.932;25.548;2023-07-09T13:21:42;2.70;;;2.50;;
3433;SDS011;1730;41.932;25.548;2023-07-09T13:24:13;2.50;;;2.30;;
3433;SDS011;1730;41.932;25.548;2023-07-09T13:26:38;2.63;;;2.43;;
3433;SDS011;1730;41.932;25.548;2023-07-09T13:29:09;2.77;;;2.57;;
3433;SDS011;1730;41.932;25.548;2023-07-09T13:31:38;3.40;;;2.73;;
3433;SDS011;1730;41.932;25.548;2023-07-09T13:34:04;2.40;;;2.30;;
3433;SDS011;1730;41.932;25.548;2023-07-09T13:36:53;2.37;;;2.27;;
3433;SDS011;1730;41.932;25.548;2023-07-09T13:39:21;4.27;;;2.70;;
3433;SDS011;1730;41.932;25.548;2023-07-09T13:41:48;3.87;;;2.90;;
3433;SDS011;1730;41.932;25.548;2023-07-09T13:44:16;4.10;;;2.70;;
3433;SDS011;1730;41.932;25.548;2023-07-09T13:46:45;2.83;;;2.63;;
3433;SDS011;1730;41.932;25.548;2023-07-09T13:49:12;3.30;;;3.00;;
3433;SDS011;1730;41.932;25.548;2023-07-09T13:51:40;2.70;;;2.50;;
3433;SDS011;1730;41.932;25.548;2023-07-09T13:57:04;3.20;;;2.67;;
3433;SDS011;1730;41.932;25.548;2023-07-09T13:59:31;3.37;;;2.70;;
3433;SDS011;1730;41.932;25.548;2023-07-09T14:01:57;2.73;;;2.37;;
3433;SDS011;1730;41.932;25.548;2023-07-09T14:04:25;5.33;;;2.70;;
3433;SDS011;1730;41.932;25.548;2023-07-09T14:06:53;2.80;;;2.60;;
3433;SDS011;1730;41.932;25.548;2023-07-09T14:09:19;8.93;;;3.00;;
3433;SDS011;1730;41.932;25.548;2023-07-09T14:11:51;2.93;;;2.73;;
3433;SDS011;1730;41.932;25.548;2023-07-09T14:14:21;4.37;;;2.20;;
3433;SDS011;1730;41.932;25.548;2023-07-09T14:16:49;3.00;;;2.80;;
3433;SDS011;1730;41.932;25.548;2023-07-09T14:19:17;5.57;;;2.60;;
3433;SDS011;1730;41.932;25.548;2023-07-09T14:21:46;2.70;;;2.50;;
3433;SDS011;1730;41.932;25.548;2023-07-09T14:26:49;3.27;;;2.97;;
3433;SDS011;1730;41.932;25.548;2023-07-09T14:29:16;3.03;;;2.83;;
3433;SDS011;1730;41.932;25.548;2023-07-09T14:31:44;3.40;;;3.20;;
3433;SDS011;1730;41.932;25.548;2023-07-09T14:36:48;3.07;;;2.87;;
3433;SDS011;1730;41.932;25.548;2023-07-09T14:39:15;3.13;;;2.93;;
3433;SDS011;1730;41.932;25.548;2023-07-09T14:41:41;4.63;;;3.00;;
3433;SDS011;1730;41.932;25.548;2023-07-09T14:46:57;3.07;;;2.77;;
3433;SDS011;1730;41.932;25.548;2023-07-09T14:49:24;3.40;;;2.70;;
3433;SDS011;1730;41.932;25.548;2023-07-09T14:51:51;2.80;;;2.60;;
3433;SDS011;1730;41.932;25.548;2023-07-09T14:54:21;3.30;;;3.00;;
3433;SDS011;1730;41.932;25.548;2023-07-09T14:56:49;2.97;;;2.77;;
3433;SDS011;1730;41.932;25.548;2023-07-09T14:59:15;2.70;;;2.50;;
3433;SDS011;1730;41.932;25.548;2023-07-09T15:01:41;3.13;;;2.70;;
3433;SDS011;1730;41.932;25.548;2023-07-09T15:06:46;3.00;;;2.80;;
3433;SDS011;1730;41.932;25.548;2023-07-09T15:09:16;6.00;;;3.00;;
3433;SDS011;1730;41.932;25.548;2023-07-09T15:11:45;4.90;;;2.70;;
3433;SDS011;1730;41.932;25.548;2023-07-09T15:14:14;3.20;;;3.00;;
3433;SDS011;1730;41.932;25.548;2023-07-09T15:16:40;3.00;;;2.80;;
3433;SDS011;1730;41.932;25.548;2023-07-09T15:19:17;3.50;;;2.80;;
3433;SDS011;1730;41.932;25.548;2023-07-09T15:21:44;2.93;;;2.73;;
3433;SDS011;1730;41.932;25.548;2023-07-09T15:24:11;3.10;;;2.90;;
3433;SDS011;1730;41.932;25.548;2023-07-09T15:26:46;6.27;;;3.10;;
3433;SDS011;1730;41.932;25.548;2023-07-09T15:29:14;6.23;;;3.07;;
3433;SDS011;1730;41.932;25.548;2023-07-09T15:31:43;5.50;;;3.70;;
3433;SDS011;1730;41.932;25.548;2023-07-09T15:34:09;2.90;;;2.70;;
3433;SDS011;1730;41.932;25.548;2023-07-09T15:36:35;3.50;;;3.30;;
3433;SDS011;1730;41.932;25.548;2023-07-09T15:39:02;4.00;;;3.70;;
3433;SDS011;1730;41.932;25.548;2023-07-09T15:41:27;3.10;;;2.90;;
3433;SDS011;1730;41.932;25.548;2023-07-09T15:43:53;3.00;;;2.80;;
3433;SDS011;1730;41.932;25.548;2023-07-09T15:46:19;3.13;;;2.80;;
3433;SDS011;1730;41.932;25.548;2023-07-09T15:48:46;9.07;;;6.87;;
3433;SDS011;1730;41.932;25.548;2023-07-09T15:51:12;3.80;;;3.47;;
3433;SDS011;1730;41.932;25.548;2023-07-09T15:53:38;3.77;;;3.27;;
3433;SDS011;1730;41.932;25.548;2023-07-09T15:56:06;3.47;;;3.23;;
3433;SDS011;1730;41.932;25.548;2023-07-09T15:58:43;5.70;;;3.53;;
3433;SDS011;1730;41.932;25.548;2023-07-09T16:01:11;3.27;;;3.00;;
3433;SDS011;1730;41.932;25.548;2023-07-09T16:03:38;3.13;;;2.93;;
3433;SDS011;1730;41.932;25.548;2023-07-09T16:06:04;3.80;;;2.80;;